Mount Rushmore Natl Memorial, South Dakota
Current Conditions -  °F | °C
As of 8:53 AM on Friday 24 Oct 2014 (Local Time) from KCUT Reporting Station
Clear Clear  
Wind Chill: 54°   Ceiling: Unl
Heat Index: 54°   Visibility: 10mi
Dew Point: 27°   Wind: 5mph
Humidity: 35%   Direction: 280°W
Pressure: 30.09"   Gusts: NA
Location:  43.88°N, 103.45°W
Report Text: KCUT 241453Z AUTO 28004KT 10SM CLR 12/M03 A3009 RMK AO2 SLP159 T01221028 53018
Loading
Personal Weather Stations






























Interactive Weather Map
Tropical Storm Tracking
New forecast layout! Learn more

10-Day Weather Forecast

Advertisements
Track Severe Weather on mobile